This is the latest recevied weather packets stored in our database for station/object JP3QZN-13. If no packets are shown the sender has not sent any weather packets the latest 1 day(s).
| Time | Temp. | Humidity | Pressure | Rain* | Wind** | Luminosity | Snow |
|---|---|---|---|---|---|---|---|
| 1777996803 | 16.11° C | 56% | 1024.1 hPa | 0 mm | 0 m/s | - | - |
| 1777995002 | 16.11° C | 55% | 1024 hPa | 0 mm | 0 m/s | - | - |
| 1777993201 | 16.67° C | 55% | 1024.2 hPa | 0 mm | 0.89 m/s, 90° | - | - |
| 1777991403 | 16.67° C | 55% | 1024.4 hPa | 0 mm | 0.89 m/s, 135° | - | - |
| 1777989602 | 17.22° C | 55% | 1024.8 hPa | 0 mm | 0 m/s | - | - |
| 1777986028 | 17.78° C | 55% | 1025.8 hPa | 0 mm | 0 m/s | - | - |
| 1777984227 | 17.78° C | 56% | 1026 hPa | 0 mm | 0 m/s | - | - |
| 1777982427 | 17.78° C | 57% | 1026 hPa | 0 mm | 0 m/s | - | - |
| 1777980625 | 18.33° C | 54% | 1025.5 hPa | 0 mm | 0 m/s | - | - |
| 1777978825 | 19.44° C | 50% | 1024.7 hPa | 0 mm | 0.89 m/s, 315° | - | - |
| 1777977024 | 20° C | 43% | 1024.1 hPa | 0 mm | 0.89 m/s, 292° | - | - |
| 1777973422 | 20° C | 41% | 1023.1 hPa | 0 mm | 0 m/s | - | - |
| 1777971622 | 21.11° C | 37% | 1022.6 hPa | 0 mm | 3.58 m/s, 225° | - | - |
| 1777969821 | 21.67° C | 36% | 1021.9 hPa | 0 mm | 2.68 m/s, 270° | - | - |
| 1777968020 | 23.33° C | 33% | 1021.4 hPa | 0 mm | 1.79 m/s, 292° | - | - |
| 1777966210 | 23.89° C | 31% | 1020.8 hPa | 0 mm | 2.68 m/s, 270° | - | - |
| 1777964409 | 27.22° C | 31% | 1020.2 hPa | 0 mm | 4.47 m/s, 247° | - | - |
| 1777962608 | 28.89° C | 27% | 1020.3 hPa | 0 mm | 1.34 m/s, 292° | - | - |
| 1777960808 | 28.89° C | 27% | 1020.6 hPa | 0 mm | 0.89 m/s, 315° | - | - |
| 1777959007 | 28.89° C | 27% | 1020.9 hPa | 0 mm | 4.02 m/s, 315° | - | - |
| 1777957206 | 28.33° C | 28% | 1021.3 hPa | 0 mm | 3.58 m/s, 315° | - | - |
* Rain latest hour (hover to see other rain measurements)
** Current wind speed in m/s (hover to see current wind gust speed)